sensor_id;sensor_type;location;lat;lon;timestamp;pressure;altitude;pressure_sealevel;temperature;humidity
76858;BME280;65830;0.000;0.000;2023-01-24T00:01:22;101086.91;;;6.24;70.40
76858;BME280;65830;0.000;0.000;2023-01-24T00:03:47;101087.59;;;6.10;70.59
76858;BME280;65830;0.000;0.000;2023-01-24T00:06:13;101079.28;;;6.00;71.46
76858;BME280;65830;0.000;0.000;2023-01-24T00:08:38;101089.81;;;6.00;71.38
76858;BME280;65830;0.000;0.000;2023-01-24T00:11:05;101086.38;;;6.17;71.56
76858;BME280;65830;0.000;0.000;2023-01-24T00:13:31;101096.81;;;6.01;71.25
76858;BME280;65830;0.000;0.000;2023-01-24T00:16:01;101098.59;;;6.01;71.20
76858;BME280;65830;0.000;0.000;2023-01-24T00:18:26;101092.16;;;5.87;71.28
76858;BME280;65830;0.000;0.000;2023-01-24T00:20:52;101099.84;;;5.92;71.60
76858;BME280;65830;0.000;0.000;2023-01-24T00:23:24;101096.28;;;5.93;71.37
76858;BME280;65830;0.000;0.000;2023-01-24T00:25:50;101089.75;;;6.02;70.96
76858;BME280;65830;0.000;0.000;2023-01-24T00:28:15;101100.69;;;5.92;71.21
76858;BME280;65830;0.000;0.000;2023-01-24T00:30:41;101088.28;;;5.94;71.45
76858;BME280;65830;0.000;0.000;2023-01-24T00:33:06;101086.88;;;6.06;71.50
76858;BME280;65830;0.000;0.000;2023-01-24T00:35:32;101092.53;;;5.99;71.28
76858;BME280;65830;0.000;0.000;2023-01-24T00:37:58;101101.91;;;5.85;71.99
76858;BME280;65830;0.000;0.000;2023-01-24T00:40:23;101098.03;;;5.92;71.58
76858;BME280;65830;0.000;0.000;2023-01-24T00:42:49;101106.97;;;5.90;71.58
76858;BME280;65830;0.000;0.000;2023-01-24T00:45:14;101095.59;;;5.89;71.64
76858;BME280;65830;0.000;0.000;2023-01-24T00:47:40;101096.94;;;5.79;72.02
76858;BME280;65830;0.000;0.000;2023-01-24T00:50:05;101100.84;;;5.89;72.01
76858;BME280;65830;0.000;0.000;2023-01-24T00:52:31;101104.41;;;5.88;71.48
76858;BME280;65830;0.000;0.000;2023-01-24T00:54:56;101100.69;;;5.92;71.45
76858;BME280;65830;0.000;0.000;2023-01-24T00:57:22;101105.94;;;5.92;71.11
76858;BME280;65830;0.000;0.000;2023-01-24T00:59:49;101097.63;;;5.83;72.01
76858;BME280;65830;0.000;0.000;2023-01-24T01:02:15;101102.28;;;5.96;71.94
76858;BME280;65830;0.000;0.000;2023-01-24T01:04:40;101099.75;;;5.95;71.65
76858;BME280;65830;0.000;0.000;2023-01-24T01:07:05;101103.41;;;5.91;71.44
76858;BME280;65830;0.000;0.000;2023-01-24T01:09:31;101103.88;;;6.01;71.38
76858;BME280;65830;0.000;0.000;2023-01-24T01:11:56;101100.78;;;5.91;71.09
76858;BME280;65830;0.000;0.000;2023-01-24T01:14:22;101107.06;;;5.69;72.50
76858;BME280;65830;0.000;0.000;2023-01-24T01:16:47;101105.47;;;5.84;72.05
76858;BME280;65830;0.000;0.000;2023-01-24T01:19:13;101104.69;;;5.82;71.58
76858;BME280;65830;0.000;0.000;2023-01-24T01:21:38;101102.84;;;5.84;71.81
76858;BME280;65830;0.000;0.000;2023-01-24T01:24:04;101100.59;;;5.95;72.01
76858;BME280;65830;0.000;0.000;2023-01-24T01:26:29;101103.28;;;5.75;71.91
76858;BME280;65830;0.000;0.000;2023-01-24T01:28:58;101106.97;;;5.90;71.84
76858;BME280;65830;0.000;0.000;2023-01-24T01:31:23;101104.25;;;5.91;71.46
76858;BME280;65830;0.000;0.000;2023-01-24T01:33:49;101109.47;;;5.93;71.66
76858;BME280;65830;0.000;0.000;2023-01-24T01:36:14;101104.91;;;5.96;71.51
76858;BME280;65830;0.000;0.000;2023-01-24T01:38:40;101102.41;;;5.93;71.29
76858;BME280;65830;0.000;0.000;2023-01-24T01:41:05;101097.81;;;5.99;71.13
76858;BME280;65830;0.000;0.000;2023-01-24T01:43:30;101103.09;;;5.99;71.25
76858;BME280;65830;0.000;0.000;2023-01-24T01:46:05;101099.50;;;6.00;71.10
76858;BME280;65830;0.000;0.000;2023-01-24T01:48:37;101094.63;;;5.90;71.00
76858;BME280;65830;0.000;0.000;2023-01-24T01:51:06;101092.94;;;5.89;71.19
76858;BME280;65830;0.000;0.000;2023-01-24T01:53:37;101094.81;;;5.68;71.16
76858;BME280;65830;0.000;0.000;2023-01-24T01:56:09;101100.13;;;5.67;71.93
76858;BME280;65830;0.000;0.000;2023-01-24T01:58:36;101098.63;;;5.80;71.76
76858;BME280;65830;0.000;0.000;2023-01-24T02:01:02;101098.94;;;5.74;71.32
76858;BME280;65830;0.000;0.000;2023-01-24T02:03:39;101099.78;;;5.74;71.38
76858;BME280;65830;0.000;0.000;2023-01-24T02:06:11;101096.31;;;5.74;71.65
76858;BME280;65830;0.000;0.000;2023-01-24T02:08:38;101098.28;;;5.69;72.08
76858;BME280;65830;0.000;0.000;2023-01-24T02:11:06;101096.66;;;5.66;71.65
76858;BME280;65830;0.000;0.000;2023-01-24T02:13:51;101109.19;;;5.80;71.44
76858;BME280;65830;0.000;0.000;2023-01-24T02:16:37;101109.47;;;5.74;71.50
76858;BME280;65830;0.000;0.000;2023-01-24T02:19:03;101110.53;;;5.70;70.88
76858;BME280;65830;0.000;0.000;2023-01-24T02:21:29;101113.41;;;5.65;71.39
76858;BME280;65830;0.000;0.000;2023-01-24T02:24:05;101110.06;;;5.62;71.47
76858;BME280;65830;0.000;0.000;2023-01-24T02:26:37;101115.88;;;5.68;71.83
76858;BME280;65830;0.000;0.000;2023-01-24T02:29:04;101122.09;;;5.67;71.12
76858;BME280;65830;0.000;0.000;2023-01-24T02:31:51;101119.81;;;5.60;71.69
76858;BME280;65830;0.000;0.000;2023-01-24T02:34:18;101121.50;;;5.61;71.14
76858;BME280;65830;0.000;0.000;2023-01-24T02:36:43;101130.06;;;5.66;71.79
76858;BME280;65830;0.000;0.000;2023-01-24T02:39:14;101121.66;;;5.57;71.72
76858;BME280;65830;0.000;0.000;2023-01-24T02:44:11;101124.91;;;5.63;71.41
76858;BME280;65830;0.000;0.000;2023-01-24T02:46:38;101126.13;;;5.55;71.52
76858;BME280;65830;0.000;0.000;2023-01-24T02:49:07;101121.84;;;5.53;71.24
76858;BME280;65830;0.000;0.000;2023-01-24T02:51:33;101130.13;;;5.45;71.93
76858;BME280;65830;0.000;0.000;2023-01-24T02:54:17;101121.22;;;5.48;71.89
76858;BME280;65830;0.000;0.000;2023-01-24T02:56:42;101127.34;;;5.48;72.35
76858;BME280;65830;0.000;0.000;2023-01-24T02:59:34;101116.25;;;5.42;71.94
76858;BME280;65830;0.000;0.000;2023-01-24T03:02:00;101119.94;;;5.37;72.01
76858;BME280;65830;0.000;0.000;2023-01-24T03:04:26;101119.22;;;5.34;72.33
76858;BME280;65830;0.000;0.000;2023-01-24T03:06:51;101123.91;;;5.27;72.30
76858;BME280;65830;0.000;0.000;2023-01-24T03:09:17;101123.69;;;5.32;72.80
76858;BME280;65830;0.000;0.000;2023-01-24T03:11:59;101121.34;;;5.26;72.60
76858;BME280;65830;0.000;0.000;2023-01-24T03:14:44;101126.84;;;5.40;72.57
76858;BME280;65830;0.000;0.000;2023-01-24T03:17:29;101118.50;;;5.30;72.51
76858;BME280;65830;0.000;0.000;2023-01-24T03:20:13;101121.41;;;5.24;72.63
76858;BME280;65830;0.000;0.000;2023-01-24T03:22:57;101120.56;;;5.24;73.24
76858;BME280;65830;0.000;0.000;2023-01-24T03:25:41;101122.53;;;5.18;72.85
76858;BME280;65830;0.000;0.000;2023-01-24T03:28:25;101123.81;;;5.29;72.78
76858;BME280;65830;0.000;0.000;2023-01-24T03:31:09;101125.47;;;5.31;72.44
76858;BME280;65830;0.000;0.000;2023-01-24T03:33:54;101115.34;;;5.22;72.89
76858;BME280;65830;0.000;0.000;2023-01-24T03:36:38;101122.25;;;5.25;72.76
76858;BME280;65830;0.000;0.000;2023-01-24T03:39:04;101121.63;;;5.20;72.78
76858;BME280;65830;0.000;0.000;2023-01-24T03:41:48;101114.69;;;5.37;72.34
76858;BME280;65830;0.000;0.000;2023-01-24T03:44:13;101111.66;;;5.26;72.89
76858;BME280;65830;0.000;0.000;2023-01-24T03:46:40;101122.75;;;5.33;72.98
76858;BME280;65830;0.000;0.000;2023-01-24T03:49:07;101120.56;;;5.24;72.86
76858;BME280;65830;0.000;0.000;2023-01-24T03:51:35;101121.53;;;5.21;72.55
76858;BME280;65830;0.000;0.000;2023-01-24T03:54:19;101120.06;;;5.34;72.06
76858;BME280;65830;0.000;0.000;2023-01-24T03:56:57;101119.56;;;5.26;72.70
76858;BME280;65830;0.000;0.000;2023-01-24T03:59:24;101123.25;;;5.22;71.98
76858;BME280;65830;0.000;0.000;2023-01-24T04:01:50;101112.78;;;5.21;72.00
76858;BME280;65830;0.000;0.000;2023-01-24T04:04:29;101128.47;;;5.24;71.66
76858;BME280;65830;0.000;0.000;2023-01-24T04:07:15;101126.22;;;5.14;72.09
76858;BME280;65830;0.000;0.000;2023-01-24T04:09:41;101115.69;;;5.14;71.99
76858;BME280;65830;0.000;0.000;2023-01-24T04:12:06;101110.22;;;5.19;71.47
76858;BME280;65830;0.000;0.000;2023-01-24T04:14:32;101118.22;;;5.17;71.30
76858;BME280;65830;0.000;0.000;2023-01-24T04:17:04;101119.91;;;5.18;71.20
76858;BME280;65830;0.000;0.000;2023-01-24T04:19:38;101115.84;;;5.11;72.20
76858;BME280;65830;0.000;0.000;2023-01-24T04:22:04;101109.00;;;5.07;72.05
76858;BME280;65830;0.000;0.000;2023-01-24T04:24:32;101106.63;;;5.01;72.49
76858;BME280;65830;0.000;0.000;2023-01-24T04:26:57;101114.69;;;4.98;72.37
76858;BME280;65830;0.000;0.000;2023-01-24T04:29:28;101111.06;;;5.01;72.60
76858;BME280;65830;0.000;0.000;2023-01-24T04:31:57;101114.75;;;4.96;72.24
76858;BME280;65830;0.000;0.000;2023-01-24T04:34:43;101119.88;;;5.00;72.74
76858;BME280;65830;0.000;0.000;2023-01-24T04:37:17;101124.41;;;4.96;72.68
76858;BME280;65830;0.000;0.000;2023-01-24T04:39:43;101124.25;;;4.99;71.80
76858;BME280;65830;0.000;0.000;2023-01-24T04:42:13;101121.25;;;5.08;71.89
76858;BME280;65830;0.000;0.000;2023-01-24T04:44:39;101125.03;;;5.01;72.18
76858;BME280;65830;0.000;0.000;2023-01-24T04:47:07;101121.56;;;5.01;71.66
76858;BME280;65830;0.000;0.000;2023-01-24T04:49:33;101122.56;;;4.98;72.19
76858;BME280;65830;0.000;0.000;2023-01-24T04:51:58;101122.56;;;4.98;72.00
76858;BME280;65830;0.000;0.000;2023-01-24T04:54:32;101127.09;;;4.94;71.62
76858;BME280;65830;0.000;0.000;2023-01-24T04:56:58;101132.06;;;4.82;72.06
76858;BME280;65830;0.000;0.000;2023-01-24T04:59:23;101129.53;;;4.78;72.17
76858;BME280;65830;0.000;0.000;2023-01-24T05:01:49;101123.50;;;4.76;72.05
76858;BME280;65830;0.000;0.000;2023-01-24T05:04:30;101130.00;;;4.88;71.56
76858;BME280;65830;0.000;0.000;2023-01-24T05:06:56;101146.00;;;4.84;71.44
76858;BME280;65830;0.000;0.000;2023-01-24T05:09:22;101138.16;;;4.82;71.76
76858;BME280;65830;0.000;0.000;2023-01-24T05:11:57;101132.47;;;4.91;71.16
76858;BME280;65830;0.000;0.000;2023-01-24T05:14:23;101140.47;;;4.90;72.09
76858;BME280;65830;0.000;0.000;2023-01-24T05:16:48;101141.63;;;4.83;71.33
76858;BME280;65830;0.000;0.000;2023-01-24T05:19:14;101145.22;;;4.82;71.43
76858;BME280;65830;0.000;0.000;2023-01-24T05:21:40;101148.69;;;4.82;71.31
76858;BME280;65830;0.000;0.000;2023-01-24T05:24:07;101146.78;;;4.86;71.65
76858;BME280;65830;0.000;0.000;2023-01-24T05:26:33;101150.47;;;4.82;71.52
76858;BME280;65830;0.000;0.000;2023-01-24T05:28:59;101147.94;;;4.78;71.59
76858;BME280;65830;0.000;0.000;2023-01-24T05:31:24;101145.06;;;4.85;71.47
76858;BME280;65830;0.000;0.000;2023-01-24T05:33:50;101147.00;;;4.80;71.28
76858;BME280;65830;0.000;0.000;2023-01-24T05:36:18;101147.22;;;4.95;70.60
76858;BME280;65830;0.000;0.000;2023-01-24T05:38:46;101150.31;;;4.85;70.72
76858;BME280;65830;0.000;0.000;2023-01-24T05:41:14;101151.38;;;4.81;71.58
76858;BME280;65830;0.000;0.000;2023-01-24T05:43:42;101157.41;;;4.83;71.38
76858;BME280;65830;0.000;0.000;2023-01-24T05:46:12;101150.31;;;4.85;70.75
76858;BME280;65830;0.000;0.000;2023-01-24T05:48:44;101154.38;;;4.71;71.14
76858;BME280;65830;0.000;0.000;2023-01-24T05:51:11;101153.72;;;4.87;70.38
76858;BME280;65830;0.000;0.000;2023-01-24T05:53:38;101162.41;;;4.68;70.91
76858;BME280;65830;0.000;0.000;2023-01-24T05:56:05;101161.56;;;4.68;71.09
76858;BME280;65830;0.000;0.000;2023-01-24T05:58:35;101158.84;;;4.69;70.90
76858;BME280;65830;0.000;0.000;2023-01-24T06:03:38;101165.69;;;4.73;71.31
76858;BME280;65830;0.000;0.000;2023-01-24T06:06:04;101177.88;;;4.76;70.49
76858;BME280;65830;0.000;0.000;2023-01-24T06:08:29;101182.03;;;4.82;70.72
76858;BME280;65830;0.000;0.000;2023-01-24T06:10:55;101178.78;;;4.75;71.10
76858;BME280;65830;0.000;0.000;2023-01-24T06:13:22;101195.59;;;4.71;70.68
76858;BME280;65830;0.000;0.000;2023-01-24T06:15:47;101184.19;;;4.72;70.73
76858;BME280;65830;0.000;0.000;2023-01-24T06:18:14;101195.66;;;4.69;71.18
76858;BME280;65830;0.000;0.000;2023-01-24T06:20:40;101190.28;;;4.72;70.67
76858;BME280;65830;0.000;0.000;2023-01-24T06:23:06;101193.81;;;4.71;71.13
76858;BME280;65830;0.000;0.000;2023-01-24T06:25:37;101194.56;;;4.75;70.85
76858;BME280;65830;0.000;0.000;2023-01-24T06:28:02;101198.44;;;4.66;71.12
76858;BME280;65830;0.000;0.000;2023-01-24T06:30:28;101198.38;;;4.68;70.92
76858;BME280;65830;0.000;0.000;2023-01-24T06:38:08;101200.66;;;4.75;70.39
76858;BME280;65830;0.000;0.000;2023-01-24T06:40:42;101209.16;;;4.82;70.30
76858;BME280;65830;0.000;0.000;2023-01-24T06:43:07;101219.38;;;4.90;69.91
76858;BME280;65830;0.000;0.000;2023-01-24T06:45:33;101221.31;;;4.85;69.72
76858;BME280;65830;0.000;0.000;2023-01-24T06:47:58;101204.44;;;4.90;70.63
76858;BME280;65830;0.000;0.000;2023-01-24T06:50:24;101221.06;;;4.91;70.06
76858;BME280;65830;0.000;0.000;2023-01-24T06:52:54;101210.88;;;4.83;70.51
76858;BME280;65830;0.000;0.000;2023-01-24T06:55:20;101217.91;;;4.83;70.78
76858;BME280;65830;0.000;0.000;2023-01-24T06:57:45;101234.78;;;4.77;70.61
76858;BME280;65830;0.000;0.000;2023-01-24T07:00:13;101235.00;;;4.72;70.74
76858;BME280;65830;0.000;0.000;2023-01-24T07:02:38;101225.25;;;4.74;70.32
76858;BME280;65830;0.000;0.000;2023-01-24T07:05:04;101228.16;;;4.68;70.63
76858;BME280;65830;0.000;0.000;2023-01-24T07:07:29;101230.72;;;4.70;70.41
76858;BME280;65830;0.000;0.000;2023-01-24T07:09:55;101231.50;;;4.72;70.50
76858;BME280;65830;0.000;0.000;2023-01-24T07:12:20;101224.31;;;4.75;69.79
76858;BME280;65830;0.000;0.000;2023-01-24T07:14:46;101226.00;;;4.78;70.01
76858;BME280;65830;0.000;0.000;2023-01-24T07:17:12;101232.47;;;4.69;69.69
76858;BME280;65830;0.000;0.000;2023-01-24T07:19:37;101231.63;;;4.69;69.93
76858;BME280;65830;0.000;0.000;2023-01-24T07:22:03;101240.72;;;4.82;69.46
76858;BME280;65830;0.000;0.000;2023-01-24T07:24:29;101241.03;;;4.74;69.27
76858;BME280;65830;0.000;0.000;2023-01-24T07:26:55;101254.25;;;4.73;69.37
76858;BME280;65830;0.000;0.000;2023-01-24T07:29:21;101256.06;;;4.71;69.40
76858;BME280;65830;0.000;0.000;2023-01-24T07:31:47;101251.34;;;4.79;69.30
76858;BME280;65830;0.000;0.000;2023-01-24T07:34:16;101254.72;;;4.83;68.83
76858;BME280;65830;0.000;0.000;2023-01-24T07:36:42;101252.09;;;4.83;68.93
76858;BME280;65830;0.000;0.000;2023-01-24T07:39:07;101246.03;;;4.81;68.64
76858;BME280;65830;0.000;0.000;2023-01-24T07:41:34;101246.63;;;4.87;68.28
76858;BME280;65830;0.000;0.000;2023-01-24T07:44:00;101251.84;;;4.89;67.88
76858;BME280;65830;0.000;0.000;2023-01-24T07:46:30;101248.94;;;4.95;67.59
76858;BME280;65830;0.000;0.000;2023-01-24T07:48:56;101254.94;;;4.98;67.56
76858;BME280;65830;0.000;0.000;2023-01-24T07:51:21;101246.78;;;5.05;67.71
76858;BME280;65830;0.000;0.000;2023-01-24T07:53:47;101251.53;;;4.96;66.79
76858;BME280;65830;0.000;0.000;2023-01-24T07:56:13;101252.38;;;4.97;66.83
76858;BME280;65830;0.000;0.000;2023-01-24T07:58:40;101266.81;;;4.87;67.16
76858;BME280;65830;0.000;0.000;2023-01-24T08:01:05;101259.31;;;5.00;67.13
76858;BME280;65830;0.000;0.000;2023-01-24T08:03:31;101271.97;;;4.90;67.06
76858;BME280;65830;0.000;0.000;2023-01-24T08:05:56;101263.19;;;4.89;66.90
76858;BME280;65830;0.000;0.000;2023-01-24T08:08:22;101273.66;;;4.91;67.15
76858;BME280;65830;0.000;0.000;2023-01-24T08:10:47;101270.38;;;4.86;66.25
76858;BME280;65830;0.000;0.000;2023-01-24T08:13:13;101272.94;;;4.87;66.83
76858;BME280;65830;0.000;0.000;2023-01-24T08:15:38;101280.03;;;4.85;66.63
76858;BME280;65830;0.000;0.000;2023-01-24T08:18:04;101276.50;;;4.86;66.79
76858;BME280;65830;0.000;0.000;2023-01-24T08:20:30;101280.72;;;4.90;66.19
76858;BME280;65830;0.000;0.000;2023-01-24T08:22:56;101286.44;;;5.00;66.44
76858;BME280;65830;0.000;0.000;2023-01-24T08:25:22;101267.03;;;5.03;65.73
76858;BME280;65830;0.000;0.000;2023-01-24T08:27:48;101273.63;;;4.92;66.19
76858;BME280;65830;0.000;0.000;2023-01-24T08:30:14;101273.47;;;4.95;65.99
76858;BME280;65830;0.000;0.000;2023-01-24T08:32:41;101271.31;;;5.05;66.04
76858;BME280;65830;0.000;0.000;2023-01-24T08:35:06;101278.03;;;5.12;66.21
76858;BME280;65830;0.000;0.000;2023-01-24T08:37:32;101271.09;;;5.11;65.56
76858;BME280;65830;0.000;0.000;2023-01-24T08:39:57;101272.06;;;5.09;66.00
76858;BME280;65830;0.000;0.000;2023-01-24T08:42:23;101270.19;;;4.90;65.80
76858;BME280;65830;0.000;0.000;2023-01-24T08:44:49;101271.47;;;5.02;65.83
76858;BME280;65830;0.000;0.000;2023-01-24T08:47:15;101279.78;;;5.13;65.69
76858;BME280;65830;0.000;0.000;2023-01-24T08:49:40;101277.25;;;5.10;65.48
76858;BME280;65830;0.000;0.000;2023-01-24T08:52:05;101279.03;;;5.10;65.67
76858;BME280;65830;0.000;0.000;2023-01-24T08:54:32;101287.78;;;5.31;65.45
76858;BME280;65830;0.000;0.000;2023-01-24T08:56:58;101283.63;;;5.05;65.30
76858;BME280;65830;0.000;0.000;2023-01-24T08:59:23;101275.53;;;5.09;64.89
76858;BME280;65830;0.000;0.000;2023-01-24T09:01:49;101285.16;;;5.10;65.15
76858;BME280;65830;0.000;0.000;2023-01-24T09:04:14;101281.72;;;5.08;65.59
76858;BME280;65830;0.000;0.000;2023-01-24T09:06:40;101275.66;;;5.06;65.57
76858;BME280;65830;0.000;0.000;2023-01-24T09:09:17;101280.78;;;5.09;65.30
76858;BME280;65830;0.000;0.000;2023-01-24T09:11:42;101285.56;;;5.22;65.28
76858;BME280;65830;0.000;0.000;2023-01-24T09:14:08;101281.72;;;5.29;65.54
76858;BME280;65830;0.000;0.000;2023-01-24T09:16:33;101280.41;;;5.18;65.11
76858;BME280;65830;0.000;0.000;2023-01-24T09:18:59;101283.56;;;5.27;64.34
76858;BME280;65830;0.000;0.000;2023-01-24T09:21:24;101271.41;;;5.24;64.37
76858;BME280;65830;0.000;0.000;2023-01-24T09:23:50;101279.28;;;5.45;63.48
76858;BME280;65830;0.000;0.000;2023-01-24T09:26:17;101270.75;;;5.40;64.68
76858;BME280;65830;0.000;0.000;2023-01-24T09:28:43;101263.66;;;5.42;63.77
76858;BME280;65830;0.000;0.000;2023-01-24T09:31:08;101270.94;;;5.55;63.28
76858;BME280;65830;0.000;0.000;2023-01-24T09:33:34;101264.22;;;5.48;63.75
76858;BME280;65830;0.000;0.000;2023-01-24T09:36:00;101257.91;;;5.52;63.78
76858;BME280;65830;0.000;0.000;2023-01-24T09:38:27;101260.97;;;5.43;63.95
76858;BME280;65830;0.000;0.000;2023-01-24T09:40:54;101264.22;;;5.48;63.90
76858;BME280;65830;0.000;0.000;2023-01-24T09:46:06;101252.97;;;5.65;63.42
76858;BME280;65830;0.000;0.000;2023-01-24T09:48:38;101262.44;;;5.69;63.35
76858;BME280;65830;0.000;0.000;2023-01-24T09:51:09;101253.47;;;5.73;63.12
76858;BME280;65830;0.000;0.000;2023-01-24T09:53:41;101253.41;;;5.75;63.41
76858;BME280;65830;0.000;0.000;2023-01-24T09:56:09;101248.84;;;5.78;62.52
76858;BME280;65830;0.000;0.000;2023-01-24T09:58:53;101248.78;;;5.80;62.48
76858;BME280;65830;0.000;0.000;2023-01-24T10:01:21;101247.09;;;5.79;62.47
76858;BME280;65830;0.000;0.000;2023-01-24T10:03:46;101253.13;;;5.81;62.29
76858;BME280;65830;0.000;0.000;2023-01-24T10:06:22;101258.50;;;5.59;62.83
76858;BME280;65830;0.000;0.000;2023-01-24T10:11:17;101247.88;;;5.81;63.37
76858;BME280;65830;0.000;0.000;2023-01-24T10:24:15;101228.00;;;5.93;61.96
76858;BME280;65830;0.000;0.000;2023-01-24T10:26:51;101228.31;;;5.87;61.95
76858;BME280;65830;0.000;0.000;2023-01-24T10:29:24;101222.59;;;5.77;61.98
76858;BME280;65830;0.000;0.000;2023-01-24T10:31:52;101209.28;;;5.80;62.56
76858;BME280;65830;0.000;0.000;2023-01-24T10:34:38;101220.25;;;5.90;61.90
76858;BME280;65830;0.000;0.000;2023-01-24T10:39:34;101208.19;;;5.84;61.59
76858;BME280;65830;0.000;0.000;2023-01-24T10:41:59;101208.59;;;5.95;61.70
76858;BME280;65830;0.000;0.000;2023-01-24T10:44:26;101206.63;;;6.01;61.80
76858;BME280;65830;0.000;0.000;2023-01-24T10:49:36;101206.47;;;6.04;61.39
76858;BME280;65830;0.000;0.000;2023-01-24T10:52:09;101202.75;;;6.08;62.27
76858;BME280;65830;0.000;0.000;2023-01-24T11:02:49;101195.50;;;6.13;61.00
76858;BME280;65830;0.000;0.000;2023-01-24T11:05:15;101184.78;;;6.16;60.52
76858;BME280;65830;0.000;0.000;2023-01-24T11:07:46;101191.41;;;6.25;61.36
76858;BME280;65830;0.000;0.000;2023-01-24T11:10:22;101188.41;;;6.32;61.91
76858;BME280;65830;0.000;0.000;2023-01-24T11:12:49;101179.63;;;6.32;60.80
76858;BME280;65830;0.000;0.000;2023-01-24T11:15:18;101182.63;;;6.24;61.73
76858;BME280;65830;0.000;0.000;2023-01-24T11:17:44;101182.75;;;6.23;61.46
76858;BME280;65830;0.000;0.000;2023-01-24T11:20:20;101183.50;;;6.25;60.98
76858;BME280;65830;0.000;0.000;2023-01-24T11:22:51;101185.63;;;6.35;61.58
76858;BME280;65830;0.000;0.000;2023-01-24T11:25:17;101172.59;;;6.32;61.37
76858;BME280;65830;0.000;0.000;2023-01-24T11:27:49;101173.44;;;6.33;61.04
76858;BME280;65830;0.000;0.000;2023-01-24T11:35:10;101165.88;;;6.62;60.83
76858;BME280;65830;0.000;0.000;2023-01-24T12:01:08;101145.63;;;6.45;60.84
76858;BME280;65830;0.000;0.000;2023-01-24T12:06:22;101143.47;;;6.70;59.60
76858;BME280;65830;0.000;0.000;2023-01-24T12:19:29;101150.31;;;6.92;58.94
76858;BME280;65830;0.000;0.000;2023-01-24T12:21:58;101152.75;;;6.95;59.88
76858;BME280;65830;0.000;0.000;2023-01-24T12:24:30;101150.94;;;7.13;59.41
76858;BME280;65830;0.000;0.000;2023-01-24T12:26:58;101154.75;;;7.07;58.92
76858;BME280;65830;0.000;0.000;2023-01-24T12:29:33;101144.22;;;7.07;59.73
76858;BME280;65830;0.000;0.000;2023-01-24T12:32:04;101156.00;;;6.30;59.60
76858;BME280;65830;0.000;0.000;2023-01-24T12:37:10;101155.16;;;6.47;60.97
76858;BME280;65830;0.000;0.000;2023-01-24T12:42:38;101162.47;;;6.77;59.62
76858;BME280;65830;0.000;0.000;2023-01-24T12:45:10;101154.72;;;6.56;59.26
76858;BME280;65830;0.000;0.000;2023-01-24T12:47:40;101149.34;;;6.41;59.67
76858;BME280;65830;0.000;0.000;2023-01-24T12:50:15;101154.94;;;6.52;60.12
76858;BME280;65830;0.000;0.000;2023-01-24T12:57:50;101152.22;;;6.88;60.12
76858;BME280;65830;0.000;0.000;2023-01-24T13:00:19;101157.50;;;6.71;59.39
76858;BME280;65830;0.000;0.000;2023-01-24T13:08:18;101157.19;;;6.77;60.95
76858;BME280;65830;0.000;0.000;2023-01-24T13:13:13;101167.22;;;6.88;59.96
76858;BME280;65830;0.000;0.000;2023-01-24T13:31:47;101168.34;;;7.00;59.92
76858;BME280;65830;0.000;0.000;2023-01-24T13:34:17;101179.28;;;7.09;60.82
76858;BME280;65830;0.000;0.000;2023-01-24T13:36:49;101168.44;;;6.98;58.95
76858;BME280;65830;0.000;0.000;2023-01-24T13:39:28;101170.78;;;7.04;58.66
76858;BME280;65830;0.000;0.000;2023-01-24T13:42:05;101164.78;;;6.83;60.04
76858;BME280;65830;0.000;0.000;2023-01-24T13:44:43;101171.22;;;6.78;61.01
76858;BME280;65830;0.000;0.000;2023-01-24T13:49:35;101170.16;;;6.82;60.30
76858;BME280;65830;0.000;0.000;2023-01-24T13:52:03;101163.94;;;6.65;60.16
76858;BME280;65830;0.000;0.000;2023-01-24T14:04:55;101171.34;;;6.76;61.12
76858;BME280;65830;0.000;0.000;2023-01-24T14:07:35;101171.72;;;6.68;60.39
76858;BME280;65830;0.000;0.000;2023-01-24T14:10:03;101171.34;;;6.76;61.01
76858;BME280;65830;0.000;0.000;2023-01-24T14:12:29;101166.72;;;6.80;61.33
76858;BME280;65830;0.000;0.000;2023-01-24T14:22:46;101161.00;;;6.71;61.41
76858;BME280;65830;0.000;0.000;2023-01-24T14:27:54;101161.38;;;6.64;60.21
76858;BME280;65830;0.000;0.000;2023-01-24T14:32:51;101162.09;;;6.67;60.83
76858;BME280;65830;0.000;0.000;2023-01-24T14:37:45;101165.66;;;6.66;60.62
76858;BME280;65830;0.000;0.000;2023-01-24T14:40:19;101162.56;;;6.58;61.04
76858;BME280;65830;0.000;0.000;2023-01-24T14:42:45;101166.66;;;6.64;60.79
76858;BME280;65830;0.000;0.000;2023-01-24T14:45:12;101164.56;;;6.53;60.58
76858;BME280;65830;0.000;0.000;2023-01-24T14:47:38;101159.28;;;6.53;60.22
76858;BME280;65830;0.000;0.000;2023-01-24T14:50:18;101167.44;;;6.48;60.78
76858;BME280;65830;0.000;0.000;2023-01-24T14:52:43;101166.56;;;6.48;61.09
76858;BME280;65830;0.000;0.000;2023-01-24T14:57:46;101164.69;;;6.50;61.26
76858;BME280;65830;0.000;0.000;2023-01-24T15:07:47;101176.03;;;6.34;60.68
76858;BME280;65830;0.000;0.000;2023-01-24T15:10:13;101168.78;;;6.21;60.08
76858;BME280;65830;0.000;0.000;2023-01-24T15:12:39;101166.81;;;6.24;61.23
76858;BME280;65830;0.000;0.000;2023-01-24T15:15:04;101176.16;;;6.31;61.56
76858;BME280;65830;0.000;0.000;2023-01-24T15:17:31;101175.25;;;6.32;60.99
76858;BME280;65830;0.000;0.000;2023-01-24T15:19:58;101182.06;;;6.36;60.11
76858;BME280;65830;0.000;0.000;2023-01-24T15:22:25;101174.72;;;6.24;61.49
76858;BME280;65830;0.000;0.000;2023-01-24T15:24:52;101180.81;;;6.44;60.52
76858;BME280;65830;0.000;0.000;2023-01-24T15:30:12;101183.59;;;6.23;61.15
76858;BME280;65830;0.000;0.000;2023-01-24T15:32:39;101181.66;;;6.27;61.79
76858;BME280;65830;0.000;0.000;2023-01-24T15:35:11;101187.84;;;6.26;61.14
76858;BME280;65830;0.000;0.000;2023-01-24T15:37:37;101186.06;;;6.26;60.90
76858;BME280;65830;0.000;0.000;2023-01-24T15:40:03;101184.72;;;6.18;61.53
76858;BME280;65830;0.000;0.000;2023-01-24T15:42:29;101191.50;;;6.23;62.11
76858;BME280;65830;0.000;0.000;2023-01-24T15:45:17;101190.03;;;6.35;61.32
76858;BME280;65830;0.000;0.000;2023-01-24T15:47:43;101190.47;;;6.45;60.84
76858;BME280;65830;0.000;0.000;2023-01-24T15:50:20;101202.81;;;6.25;61.68
76858;BME280;65830;0.000;0.000;2023-01-24T15:53:38;101201.97;;;6.25;60.33
76858;BME280;65830;0.000;0.000;2023-01-24T15:55:57;101198.56;;;6.23;61.24